Terminal Aerodrome Forecast
Issued by NWS

Home | Current Version | Previous Version | Text Only | Print | Product List | Glossary On
Versions: 1 2 3 4 5 6 7 8 9 10 11 12 13 14 15
000
FTUS44 KBMX 291121
TAFTCL
TAF
KTCL 291121Z 2912/3012 18005KT P6SM FEW060 SCT200
     FM291300 14003KT 6SM -RA BKN020 BKN040
     FM291500 16007KT P6SM VCTS BKN015 BKN035CB
     FM300100 16002KT 6SM BR VCSH OVC007 PROB30 3006/3012 4SM TSRA
      BKN007CB OVC025=

USA.gov is the U.S. government's official web portal to all federal, state and local government web resources and services.